• Join FlightAware (Why Join?)
  • Login
  • US Flag 
11:46PM EDT


 

Airport Tracker/Info


-or-


 

Live Flight TrackerFlight Track Log ✈ CMP488 ✈ 20-Apr-2012 ✈ MPTO / PTY - KIAD

Flight Track Log - Related Links

Times and Time Zones

All times are in EDT time to prevent confusion due to time zone crossing. See the CMP488 flight status page for this flight to view local times or setup timezone preferences in your user account.

Time Position Orientation Groundspeed Altitude Reporting Facility
EDT Latitude Longitude Course Direction KTS MPH feet Rate Location/Type
10:09PM 30.4206 -78.5160 184° South  Level FlightAware Approximate
10:10PM 30.5403 -78.4969 184° South  Level FlightAware Approximate
10:11PM 30.6599 -78.4778 184° South  Level FlightAware Approximate
10:12PM 30.7796 -78.4587 184° South  Level FlightAware Approximate
10:13PM 30.8946 -78.4313 184° South  Level FlightAware Approximate
10:14PM 31.0146 -78.4154 185° South  Level FlightAware Approximate
10:15PM 31.1346 -78.3995 185° South  Level FlightAware Approximate
10:16PM 31.2546 -78.3836 185° South  Level FlightAware Approximate
10:17PM 23.2406 -79.0839 North 457 526 36,000  Level Miami Center
10:18PM 23.3681 -79.0814 359° North 457 526 36,000  Level Miami Center
10:19PM 23.4933 -79.0836 North 457 526 36,000  Level Miami Center
10:20PM 23.6231 -79.0744 North 457 526 36,000  Level Miami Center
10:21PM 23.7506 -79.0722 North 457 526 36,000 -60 Level Miami Center
10:22PM 23.8781 -79.0675 360° North 457 526 35,900 -60 Descending Miami Center
10:23PM 24.0014 -79.0675 North 452 520 35,900  Level Miami Center
10:24PM 24.1289 -79.0514 North 457 526 35,900  Level Miami Center
10:25PM 24.2547 -79.0308 North 457 526 35,900 900 Level Miami Center
10:26PM 24.3761 -79.0125 North 451 519 37,800 1,440 Climbing Miami Center
10:27PM 24.4975 -78.9964 North 446 513 38,800 840 Climbing Miami Center
10:28PM 24.6189 -78.9778 North 437 503 39,500 660 Climbing Miami Center
10:29PM 24.7447 -78.9617 North 442 509 40,200 600 Climbing Miami Center
10:30PM 24.8661 -78.9431 North 447 514 40,800 360 Climbing Miami Center
10:31PM 24.9792 -78.9336 North 447 514 41,000 60 Climbing Miami Center
10:32PM 25.1067 -78.9150 North 452 520 41,000  Level Miami Center
10:33PM 25.2386 -78.8944 North 459 528 41,000  Level Miami Center
10:34PM 25.3622 -78.8781 North 465 535 41,000  Level Miami Center
10:35PM 25.4919 -78.8572 North 465 535 41,000  Level Miami Center
10:36PM 25.6239 -78.8361 North 458 527 41,000  Level Miami Center
10:37PM 25.7517 -78.8200 North 464 534 41,000  Level Miami Center
10:38PM 25.8794 -78.8011 North 469 540 41,000  Level Miami Center
10:39PM 26.0092 -78.7825 North 464 534 41,000  Level Miami Center
10:40PM 26.1536 -78.7569 North 469 540 41,000  Level Miami Center
10:41PM 26.2792 -78.7381 North 462 532 41,000  Level Miami Center
10:42PM 26.4111 -78.7194 North 462 532 41,000 -60 Level Miami Center
10:43PM 26.5389 -78.7006 351° North 468 539 40,900 -60 Descending Miami Center
10:44PM 26.6617 -78.7233 344° North 449 517 40,900  Level Miami Center
10:45PM 26.7700 -78.7575 357° North 449 517 41,000  Climbing Miami Center
10:46PM 26.8931 -78.7642 North 444 511 41,000 -60 Level Miami Center
10:47PM 27.0228 -78.7547 North 444 511 40,900  Descending Miami Center
10:48PM 27.1442 -78.7381 North 451 519 41,000  Climbing Miami Center
10:49PM 27.2694 -78.7236 North 451 519 41,000  Level Miami Center
10:50PM 27.4117 -78.7072 North 451 519 41,000  Level Miami Center
10:51PM 27.5372 -78.6953 North 451 519 41,000  Level Miami Center
10:52PM 27.6458 -78.6853 North 451 519 41,000  Level Miami Center
10:53PM 27.7756 -78.6686 North 451 519 41,000  Level Miami Center
10:54PM 27.9178 -78.6519 North 451 519 41,000 -60 Level Miami Center
10:55PM 28.0433 -78.6397 North 456 525 40,900  Descending Miami Center
10:56PM 28.1708 -78.6253 North 456 525 41,000  Climbing Miami Center
10:57PM 28.2983 -78.6086 North 456 525 40,900  Descending Miami Center
10:58PM 28.4236 -78.5961 North 456 525 41,000  Climbing Miami Center
10:59PM 28.5469 -78.5792 North 462 532 40,900  Descending Miami Center
11:00PM 28.6767 -78.5669 North 462 532 41,000  Climbing Miami Center
11:01PM 28.8019 -78.5525 North 457 526 40,900  Descending Miami Center
11:02PM 28.9336 -78.5356 North 462 532 41,000  Climbing Miami Center
11:03PM 29.0569 -78.5183 North 462 532 41,000  Level Miami Center
11:04PM 29.1906 -78.5083 North 462 532 41,000  Level Miami Center
11:05PM 29.3200 -78.4914 North 463 533 41,000  Level Miami Center
11:06PM 29.4497 -78.4767 North 458 527 41,000 -60 Level Miami Center
11:07PM 29.5728 -78.4569 North 460 529 40,900  Descending Miami Center
11:08PM 29.7064 -78.4469 North 460 529 41,000  Climbing Miami Center
11:11PM 30.1494 -78.3889 North 481 554 41,000  Level Jacksonville Center
11:12PM 30.2700 -78.3786 North 452 520 41,000  Level Jacksonville Center
11:13PM 30.4011 -78.3628 North 442 509 41,000  Level Jacksonville Center
11:14PM 30.5342 -78.3469 North 461 531 41,000  Level Jacksonville Center
11:15PM 30.6628 -78.3308 North 467 537 41,000  Level Jacksonville Center
11:16PM 30.7939 -78.3150 North 467 537 41,000  Level Jacksonville Center
11:17PM 30.9206 -78.2992 North 467 537 41,000  Level Jacksonville Center
11:18PM 31.0706 -78.2942 North 462 532 41,000  Level Jacksonville Center
11:19PM 31.1994 -78.2733 North 476 548 41,000  Level Jacksonville Center
11:20PM 31.3283 -78.2622 North 476 548 41,000  Level Jacksonville Center
11:21PM 31.4569 -78.2411 North 471 542 41,000  Level Jacksonville Center
11:22PM 31.5858 -78.2250 North 471 542 41,000  Level Jacksonville Center
11:23PM 31.7147 -78.2086 North 466 536 41,000  Level Jacksonville Center
11:24PM 31.8456 -78.1947 North 466 536 41,000  Level Jacksonville Center
11:25PM 31.9744 -78.1783 North 461 531 41,000  Level Jacksonville Center
11:26PM 32.1033 -78.1619 North 461 531 41,000  Level Jacksonville Center
11:27PM 32.2300 -78.1481 North 461 531 41,000  Level Jacksonville Center
11:28PM 32.3586 -78.1292 North 461 531 41,000  Level Jacksonville Center
11:29PM 32.4875 -78.1125 North 461 531 41,000  Level Jacksonville Center
11:30PM 32.6164 -78.0958 North 461 531 41,000  Level Jacksonville Center
11:31PM 32.7472 -78.0814 North 461 531 41,000  Level Jacksonville Center
11:32PM 32.8781 -78.0647 North 461 531 41,000  Level Jacksonville Center
11:33PM 33.0067 -78.0478 North 461 531 41,000  Level Jacksonville Center
11:34PM 33.1336 -78.0336 North 461 531 41,000  Level Jacksonville Center
11:35PM 33.2644 -78.0164 North 461 531 41,000  Level Jacksonville Center
11:37PM 33.4678 -77.9914 North 461 531 41,000  Level Washington Center
11:38PM 33.5953 -77.9725 North 461 531 41,000  Level Washington Center
11:39PM 33.7228 -77.9561 North 461 531 41,000  Level Washington Center
11:40PM 33.8483 -77.9397 North 461 531 41,000  Level Washington Center
11:41PM 33.9822 -77.9211 North 473 544 41,000  Level Washington Center
11:42PM 34.1097 -77.9069 North 467 537 41,000  Level Washington Center
11:43PM 34.2250 -77.8903 North 467 537 41,000  Level Washington Center
11:44PM 34.3567 -77.8761 North 474 545 41,000  Level Washington Center
11:45PM 34.4839 -77.8747 North 468 539 41,000  Level Washington Center
11:46PM 34.6111 -77.8733 North 462 532 41,000  Level Washington Center
11:47PM 34.7406 -77.8719 North 457 526 41,000  Level Washington Center
11:48PM 34.8658 -77.8678 North 450 518 41,000  Level Washington Center
11:49PM 34.9933 -77.8636 North 450 518 41,000  Level Washington Center
11:50PM 35.1225 -77.8622 North 457 526 41,000  Level Washington Center
11:51PM 35.2519 -77.8608 360° North 462 532 41,000  Level Washington Center
11:52PM 35.3961 -77.8597 360° North 462 532 41,000  Level Washington Center
11:53PM 35.5275 -77.8583 360° North 462 532 41,000  Level Washington Center
11:54PM 35.6589 -77.8569 360° North 462 532 41,000  Level Washington Center
11:55PM 35.7883 -77.8556 360° North 462 532 41,000  Level Washington Center
11:56PM 35.9197 -77.8542 360° North 462 532 41,000  Level Washington Center
11:57PM 36.0514 -77.8528 North 462 532 41,000  Level Washington Center
11:58PM 36.1808 -77.8461 North 457 526 41,000  Level Washington Center
11:59PM 36.3128 -77.8217 10° North 464 534 41,000  Level Washington Center
12:00AM 36.4383 -77.7942 10° North 469 540 41,000  Level Washington Center
12:01AM 36.5683 -77.7669 North 464 534 41,000  Level Washington Center
12:02AM 36.7000 -77.7447 10° North 471 542 41,000 -900 Level Washington Center
12:03AM 36.8300 -77.7172 10° North 471 542 39,300 -2,280 Descending Washington Center
12:04AM 36.9578 -77.6894 North 466 536 36,500 -3,180 Descending Washington Center
12:05AM 37.0917 -77.6644 North 471 542 33,100 -3,480 Descending Washington Center
12:06AM 37.2233 -77.6394 North 471 542 29,700 -3,060 Descending Washington Center
12:07AM 37.3533 -77.6142 10° North 471 542 27,000 -2,700 Descending Washington Center
12:08AM 37.4789 -77.5861 10° North 466 536 24,300 -2,640 Descending Washington Center
12:09AM 37.5981 -77.5603 North 455 524 21,700 -2,640 Descending Washington Center
12:10AM 37.7175 -77.5372 North 444 511 19,100 -2,580 Descending Washington Center
12:11AM 37.8303 -77.5164 10° North 425 489 16,500 -2,580 Descending Washington Center
12:12AM 37.9392 -77.4928 North 410 472 14,000 -2,520 Descending Washington Center
12:13AM 38.0439 -77.4717 North 398 458 11,600 -1,920 Descending Washington Center
12:14AM 38.1464 -77.4506 17° North 380 437 10,200 -840 Descending Washington Center
12:15AM 38.2281 -77.4181 25° Northeast 342 394 9,900 -120 Descending Washington Center
12:16AM 38.2975 -77.3775 13° North 312 359 10,000 -480 Climbing Washington Center
12:17AM 38.3750 -77.3556 359° North 291 335 9,000 -1,140 Descending Washington Center
12:18AM 38.4542 -77.3575 359° North 279 321 7,800 -1,500 Descending Washington Center
12:19AM 38.5294 -77.3592 North 274 315 6,000 -1,800 Descending Washington Center
12:20AM 38.6064 -77.3558 356° North 274 315 4,300 -1,080 Descending Washington Center
12:21AM 38.6772 -77.3628 353° North 268 308 3,900 -180 Descending Washington Center
12:22AM 38.7417 -77.3722 359° North 246 283 4,000 -300 Climbing Washington Center
12:23AM 38.8042 -77.3739 North 233 268 3,400 -540 Descending Washington Center
12:25AM 38.9167 -77.3667 11° North 231 266 2,600 -540 Descending Potomac TRACON
12:26AM 38.9833 -77.3500 339° North 208 239 2,000 -480 Descending Potomac TRACON
12:27AM 39.0167 -77.3667 288° West 179 206 1,700 -180 Descending Potomac TRACON
12:28AM 39.0333 -77.4333 180° South 153 176 1,700 -240 Level Potomac TRACON
12:29AM 39.0167 -77.4333 180° South 135 155 1,300 -540 Descending Potomac TRACON
12:30AM 38.9833 -77.4333 180° South 123 142 700 -600 Descending Potomac TRACON